sensor_id;sensor_type;location;lat;lon;timestamp;pressure;altitude;pressure_sealevel;temperature;humidity
80699;BME280;70062;51.658;5.658;2023-08-12T00:01:21;101621.79;;;21.65;77.61
80699;BME280;70062;51.658;5.658;2023-08-12T00:03:47;101619.45;;;21.61;77.70
80699;BME280;70062;51.658;5.658;2023-08-12T00:06:13;101614.02;;;21.59;77.87
80699;BME280;70062;51.658;5.658;2023-08-12T00:08:38;101614.57;;;21.62;78.23
80699;BME280;70062;51.658;5.658;2023-08-12T00:11:04;101616.54;;;21.64;78.08
80699;BME280;70062;51.658;5.658;2023-08-12T00:13:29;101613.02;;;21.63;77.98
80699;BME280;70062;51.658;5.658;2023-08-12T00:15:55;101610.71;;;21.61;78.04
80699;BME280;70062;51.658;5.658;2023-08-12T00:18:22;101612.45;;;21.60;78.00
80699;BME280;70062;51.658;5.658;2023-08-12T00:20:47;101612.03;;;21.56;78.08
80699;BME280;70062;51.658;5.658;2023-08-12T00:23:12;101613.75;;;21.54;78.22
80699;BME280;70062;51.658;5.658;2023-08-12T00:25:38;101620.02;;;21.52;78.25
80699;BME280;70062;51.658;5.658;2023-08-12T00:28:03;101616.33;;;21.51;78.35
80699;BME280;70062;51.658;5.658;2023-08-12T00:30:29;101612.45;;;21.49;78.45
80699;BME280;70062;51.658;5.658;2023-08-12T00:32:54;101607.89;;;21.48;78.64
80699;BME280;70062;51.658;5.658;2023-08-12T00:35:19;101604.40;;;21.48;78.76
80699;BME280;70062;51.658;5.658;2023-08-12T00:37:45;101597.23;;;21.49;79.03
80699;BME280;70062;51.658;5.658;2023-08-12T00:40:10;101594.09;;;21.49;79.45
80699;BME280;70062;51.658;5.658;2023-08-12T00:42:36;101587.98;;;21.48;79.72
80699;BME280;70062;51.658;5.658;2023-08-12T00:45:01;101583.97;;;21.49;79.77
80699;BME280;70062;51.658;5.658;2023-08-12T00:47:28;101581.83;;;21.47;79.75
80699;BME280;70062;51.658;5.658;2023-08-12T00:49:54;101579.21;;;21.46;79.88
80699;BME280;70062;51.658;5.658;2023-08-12T00:52:22;101573.95;;;21.45;79.96
80699;BME280;70062;51.658;5.658;2023-08-12T00:54:47;101572.05;;;21.45;80.00
80699;BME280;70062;51.658;5.658;2023-08-12T00:57:13;101570.46;;;21.45;80.20
80699;BME280;70062;51.658;5.658;2023-08-12T00:59:39;101569.56;;;21.43;80.23
80699;BME280;70062;51.658;5.658;2023-08-12T01:02:06;101570.95;;;21.43;80.32
80699;BME280;70062;51.658;5.658;2023-08-12T01:04:31;101569.01;;;21.42;80.51
80699;BME280;70062;51.658;5.658;2023-08-12T01:06:57;101566.56;;;21.42;80.68
80699;BME280;70062;51.658;5.658;2023-08-12T01:09:22;101566.92;;;21.42;80.55
80699;BME280;70062;51.658;5.658;2023-08-12T01:12:12;101564.45;;;21.41;80.75
80699;BME280;70062;51.658;5.658;2023-08-12T01:14:46;101560.64;;;21.43;80.74
80699;BME280;70062;51.658;5.658;2023-08-12T01:17:14;101562.75;;;21.43;80.69
80699;BME280;70062;51.658;5.658;2023-08-12T01:19:41;101559.43;;;21.43;80.65
80699;BME280;70062;51.658;5.658;2023-08-12T01:22:09;101556.61;;;21.42;80.67
80699;BME280;70062;51.658;5.658;2023-08-12T01:24:42;101550.15;;;21.42;80.93
80699;BME280;70062;51.658;5.658;2023-08-12T01:27:09;101544.23;;;21.44;80.82
80699;BME280;70062;51.658;5.658;2023-08-12T01:29:41;101547.94;;;21.47;80.96
80699;BME280;70062;51.658;5.658;2023-08-12T01:32:34;101541.31;;;21.47;81.06
80699;BME280;70062;51.658;5.658;2023-08-12T01:35:17;101541.32;;;21.47;81.07
80699;BME280;70062;51.658;5.658;2023-08-12T01:37:47;101531.64;;;21.43;81.10
80699;BME280;70062;51.658;5.658;2023-08-12T01:40:14;101530.35;;;21.38;81.01
80699;BME280;70062;51.658;5.658;2023-08-12T01:42:41;101525.44;;;21.37;81.14
80699;BME280;70062;51.658;5.658;2023-08-12T01:45:07;101521.09;;;21.38;81.20
80699;BME280;70062;51.658;5.658;2023-08-12T01:47:32;101518.83;;;21.38;81.31
80699;BME280;70062;51.658;5.658;2023-08-12T01:49:58;101518.85;;;21.40;81.20
80699;BME280;70062;51.658;5.658;2023-08-12T01:52:23;101515.20;;;21.41;81.20
80699;BME280;70062;51.658;5.658;2023-08-12T01:54:49;101513.63;;;21.41;81.17
80699;BME280;70062;51.658;5.658;2023-08-12T01:57:14;101518.16;;;21.41;81.23
80699;BME280;70062;51.658;5.658;2023-08-12T01:59:40;101524.11;;;21.41;81.19
80699;BME280;70062;51.658;5.658;2023-08-12T02:02:06;101521.96;;;21.38;81.25
80699;BME280;70062;51.658;5.658;2023-08-12T02:04:33;101514.02;;;21.33;81.33
80699;BME280;70062;51.658;5.658;2023-08-12T02:06:59;101511.39;;;21.32;81.25
80699;BME280;70062;51.658;5.658;2023-08-12T02:09:24;101508.76;;;21.31;81.10
80699;BME280;70062;51.658;5.658;2023-08-12T02:11:50;101505.79;;;21.30;81.27
80699;BME280;70062;51.658;5.658;2023-08-12T02:14:15;101503.13;;;21.28;81.14
80699;BME280;70062;51.658;5.658;2023-08-12T02:16:41;101505.04;;;21.28;81.24
80699;BME280;70062;51.658;5.658;2023-08-12T02:19:06;101504.30;;;21.25;81.15
80699;BME280;70062;51.658;5.658;2023-08-12T02:21:32;101501.46;;;21.23;81.19
80699;BME280;70062;51.658;5.658;2023-08-12T02:23:57;101504.36;;;21.20;81.44
80699;BME280;70062;51.658;5.658;2023-08-12T02:26:22;101502.59;;;21.19;81.50
80699;BME280;70062;51.658;5.658;2023-08-12T02:28:48;101502.54;;;21.16;81.55
80699;BME280;70062;51.658;5.658;2023-08-12T02:31:15;101504.58;;;21.12;81.39
80699;BME280;70062;51.658;5.658;2023-08-12T02:33:41;101500.02;;;21.11;81.49
80699;BME280;70062;51.658;5.658;2023-08-12T02:36:06;101498.80;;;21.11;81.58
80699;BME280;70062;51.658;5.658;2023-08-12T02:38:31;101494.27;;;21.11;81.74
80699;BME280;70062;51.658;5.658;2023-08-12T02:40:57;101492.03;;;21.13;81.67
80699;BME280;70062;51.658;5.658;2023-08-12T02:43:22;101491.14;;;21.12;81.67
80699;BME280;70062;51.658;5.658;2023-08-12T02:45:48;101490.95;;;21.11;81.75
80699;BME280;70062;51.658;5.658;2023-08-12T02:48:13;101486.40;;;21.11;81.79
80699;BME280;70062;51.658;5.658;2023-08-12T02:50:39;101482.04;;;21.11;81.96
80699;BME280;70062;51.658;5.658;2023-08-12T02:53:05;101478.23;;;21.14;81.91
80699;BME280;70062;51.658;5.658;2023-08-12T02:55:31;101476.05;;;21.19;81.82
80699;BME280;70062;51.658;5.658;2023-08-12T02:58:01;101473.18;;;21.23;81.82
80699;BME280;70062;51.658;5.658;2023-08-12T03:00:27;101465.91;;;21.27;81.77
80699;BME280;70062;51.658;5.658;2023-08-12T03:02:53;101463.17;;;21.30;81.58
80699;BME280;70062;51.658;5.658;2023-08-12T03:05:18;101457.77;;;21.32;81.70
80699;BME280;70062;51.658;5.658;2023-08-12T03:07:44;101457.21;;;21.29;81.51
80699;BME280;70062;51.658;5.658;2023-08-12T03:10:10;101453.14;;;21.26;81.66
80699;BME280;70062;51.658;5.658;2023-08-12T03:12:35;101449.80;;;21.25;81.48
80699;BME280;70062;51.658;5.658;2023-08-12T03:15:02;101444.39;;;21.24;81.48
80699;BME280;70062;51.658;5.658;2023-08-12T03:17:27;101444.21;;;21.24;81.50
80699;BME280;70062;51.658;5.658;2023-08-12T03:19:52;101442.30;;;21.24;81.55
80699;BME280;70062;51.658;5.658;2023-08-12T03:22:20;101443.70;;;21.25;81.55
80699;BME280;70062;51.658;5.658;2023-08-12T03:24:45;101438.13;;;21.26;81.60
80699;BME280;70062;51.658;5.658;2023-08-12T03:27:10;101431.48;;;21.25;81.59
80699;BME280;70062;51.658;5.658;2023-08-12T03:29:36;101433.03;;;21.23;81.49
80699;BME280;70062;51.658;5.658;2023-08-12T03:32:01;101429.27;;;21.20;81.68
80699;BME280;70062;51.658;5.658;2023-08-12T03:34:28;101426.42;;;21.16;81.72
80699;BME280;70062;51.658;5.658;2023-08-12T03:36:55;101423.23;;;21.13;81.74
80699;BME280;70062;51.658;5.658;2023-08-12T03:39:20;101423.02;;;21.11;81.77
80699;BME280;70062;51.658;5.658;2023-08-12T03:41:45;101417.27;;;21.11;81.78
80699;BME280;70062;51.658;5.658;2023-08-12T03:44:11;101413.09;;;21.11;81.84
80699;BME280;70062;51.658;5.658;2023-08-12T03:46:36;101414.31;;;21.12;81.87
80699;BME280;70062;51.658;5.658;2023-08-12T03:49:01;101415.71;;;21.12;81.74
80699;BME280;70062;51.658;5.658;2023-08-12T03:51:27;101413.61;;;21.12;81.63
80699;BME280;70062;51.658;5.658;2023-08-12T03:53:52;101411.66;;;21.09;81.56
80699;BME280;70062;51.658;5.658;2023-08-12T03:56:18;101406.05;;;21.07;81.63
80699;BME280;70062;51.658;5.658;2023-08-12T03:58:43;101399.55;;;21.05;81.63
80699;BME280;70062;51.658;5.658;2023-08-12T04:01:08;101403.36;;;21.03;81.69
80699;BME280;70062;51.658;5.658;2023-08-12T04:03:34;101408.16;;;20.97;81.51
80699;BME280;70062;51.658;5.658;2023-08-12T04:05:59;101409.89;;;20.96;81.59
80699;BME280;70062;51.658;5.658;2023-08-12T04:08:25;101406.01;;;20.94;81.47
80699;BME280;70062;51.658;5.658;2023-08-12T04:10:51;101403.69;;;20.90;81.50
80699;BME280;70062;51.658;5.658;2023-08-12T04:13:17;101404.52;;;20.87;81.85
80699;BME280;70062;51.658;5.658;2023-08-12T04:15:42;101401.86;;;20.85;81.61
80699;BME280;70062;51.658;5.658;2023-08-12T04:18:08;101400.25;;;20.83;81.82
80699;BME280;70062;51.658;5.658;2023-08-12T04:20:33;101401.77;;;20.81;81.88
80699;BME280;70062;51.658;5.658;2023-08-12T04:22:59;101407.18;;;20.80;81.70
80699;BME280;70062;51.658;5.658;2023-08-12T04:25:25;101403.90;;;20.81;81.46
80699;BME280;70062;51.658;5.658;2023-08-12T04:27:50;101402.33;;;20.82;81.35
80699;BME280;70062;51.658;5.658;2023-08-12T04:30:19;101392.56;;;20.82;80.83
80699;BME280;70062;51.658;5.658;2023-08-12T04:32:44;101391.71;;;20.83;80.89
80699;BME280;70062;51.658;5.658;2023-08-12T04:35:09;101385.77;;;20.83;80.79
80699;BME280;70062;51.658;5.658;2023-08-12T04:37:36;101379.98;;;20.82;80.85
80699;BME280;70062;51.658;5.658;2023-08-12T04:40:02;101375.44;;;20.81;80.94
80699;BME280;70062;51.658;5.658;2023-08-12T04:42:30;101369.02;;;20.82;80.80
80699;BME280;70062;51.658;5.658;2023-08-12T04:44:55;101365.20;;;20.85;80.95
80699;BME280;70062;51.658;5.658;2023-08-12T04:47:20;101370.14;;;20.88;81.00
80699;BME280;70062;51.658;5.658;2023-08-12T04:49:46;101371.38;;;20.89;80.97
80699;BME280;70062;51.658;5.658;2023-08-12T04:52:11;101375.59;;;20.90;81.08
80699;BME280;70062;51.658;5.658;2023-08-12T04:54:37;101376.10;;;20.90;81.12
80699;BME280;70062;51.658;5.658;2023-08-12T04:57:02;101374.15;;;20.88;81.46
80699;BME280;70062;51.658;5.658;2023-08-12T04:59:27;101373.35;;;20.81;81.58
80699;BME280;70062;51.658;5.658;2023-08-12T05:01:53;101378.27;;;20.74;81.74
80699;BME280;70062;51.658;5.658;2023-08-12T05:04:18;101376.63;;;20.69;82.17
80699;BME280;70062;51.658;5.658;2023-08-12T05:06:43;101371.84;;;20.64;82.35
80699;BME280;70062;51.658;5.658;2023-08-12T05:09:09;101365.13;;;20.60;82.36
80699;BME280;70062;51.658;5.658;2023-08-12T05:11:34;101361.23;;;20.56;82.61
80699;BME280;70062;51.658;5.658;2023-08-12T05:14:00;101360.46;;;20.51;82.79
80699;BME280;70062;51.658;5.658;2023-08-12T05:16:25;101365.25;;;20.46;83.03
80699;BME280;70062;51.658;5.658;2023-08-12T05:18:51;101370.20;;;20.40;83.29
80699;BME280;70062;51.658;5.658;2023-08-12T05:21:18;101368.02;;;20.37;83.49
80699;BME280;70062;51.658;5.658;2023-08-12T05:23:43;101357.16;;;20.34;83.87
80699;BME280;70062;51.658;5.658;2023-08-12T05:26:09;101346.65;;;20.31;84.18
80699;BME280;70062;51.658;5.658;2023-08-12T05:28:34;101347.30;;;20.28;84.41
80699;BME280;70062;51.658;5.658;2023-08-12T05:30:59;101350.38;;;20.25;84.81
80699;BME280;70062;51.658;5.658;2023-08-12T05:33:25;101342.34;;;20.23;84.85
80699;BME280;70062;51.658;5.658;2023-08-12T05:35:50;101337.83;;;20.25;85.18
80699;BME280;70062;51.658;5.658;2023-08-12T05:38:16;101341.85;;;20.26;85.09
80699;BME280;70062;51.658;5.658;2023-08-12T05:40:41;101346.00;;;20.23;84.84
80699;BME280;70062;51.658;5.658;2023-08-12T05:43:07;101351.81;;;20.17;84.85
80699;BME280;70062;51.658;5.658;2023-08-12T05:45:32;101352.95;;;20.12;84.92
80699;BME280;70062;51.658;5.658;2023-08-12T05:47:58;101340.48;;;20.07;85.00
80699;BME280;70062;51.658;5.658;2023-08-12T05:50:26;101330.70;;;20.06;85.39
80699;BME280;70062;51.658;5.658;2023-08-12T05:52:51;101340.45;;;20.05;85.32
80699;BME280;70062;51.658;5.658;2023-08-12T05:55:17;101345.90;;;19.98;85.51
80699;BME280;70062;51.658;5.658;2023-08-12T05:57:42;101342.52;;;19.94;85.81
80699;BME280;70062;51.658;5.658;2023-08-12T06:00:08;101339.36;;;19.93;86.01
80699;BME280;70062;51.658;5.658;2023-08-12T06:02:33;101343.96;;;19.97;86.27
80699;BME280;70062;51.658;5.658;2023-08-12T06:04:59;101345.91;;;19.99;85.82
80699;BME280;70062;51.658;5.658;2023-08-12T06:07:24;101342.10;;;20.00;85.93
80699;BME280;70062;51.658;5.658;2023-08-12T06:09:50;101340.73;;;20.02;85.98
80699;BME280;70062;51.658;5.658;2023-08-12T06:12:16;101338.92;;;20.08;85.97
80699;BME280;70062;51.658;5.658;2023-08-12T06:14:42;101333.79;;;20.13;86.05
80699;BME280;70062;51.658;5.658;2023-08-12T06:17:07;101324.30;;;20.18;85.74
80699;BME280;70062;51.658;5.658;2023-08-12T06:19:33;101319.45;;;20.21;85.56
80699;BME280;70062;51.658;5.658;2023-08-12T06:21:58;101320.77;;;20.26;85.66
80699;BME280;70062;51.658;5.658;2023-08-12T06:24:24;101321.15;;;20.28;85.34
80699;BME280;70062;51.658;5.658;2023-08-12T06:26:49;101319.96;;;20.30;85.52
80699;BME280;70062;51.658;5.658;2023-08-12T06:29:14;101320.35;;;20.32;85.14
80699;BME280;70062;51.658;5.658;2023-08-12T06:31:40;101321.60;;;20.34;85.32
80699;BME280;70062;51.658;5.658;2023-08-12T06:34:05;101320.94;;;20.36;85.18
80699;BME280;70062;51.658;5.658;2023-08-12T06:36:30;101310.94;;;20.41;85.28
80699;BME280;70062;51.658;5.658;2023-08-12T06:38:56;101308.20;;;20.45;85.23
80699;BME280;70062;51.658;5.658;2023-08-12T06:41:21;101308.29;;;20.50;85.16
80699;BME280;70062;51.658;5.658;2023-08-12T06:43:47;101302.82;;;20.57;85.49
80699;BME280;70062;51.658;5.658;2023-08-12T06:46:12;101292.31;;;20.66;85.15
80699;BME280;70062;51.658;5.658;2023-08-12T06:48:37;101295.15;;;20.69;84.65
80699;BME280;70062;51.658;5.658;2023-08-12T06:51:03;101298.44;;;20.67;84.69
80699;BME280;70062;51.658;5.658;2023-08-12T06:53:39;101295.27;;;20.65;84.67
80699;BME280;70062;51.658;5.658;2023-08-12T06:56:04;101297.74;;;20.67;85.05
80699;BME280;70062;51.658;5.658;2023-08-12T06:58:30;101291.89;;;20.73;85.02
80699;BME280;70062;51.658;5.658;2023-08-12T07:00:56;101285.75;;;20.81;85.04
80699;BME280;70062;51.658;5.658;2023-08-12T07:03:24;101285.05;;;20.92;84.78
80699;BME280;70062;51.658;5.658;2023-08-12T07:05:50;101282.89;;;21.01;84.74
80699;BME280;70062;51.658;5.658;2023-08-12T07:08:15;101277.80;;;21.13;84.65
80699;BME280;70062;51.658;5.658;2023-08-12T07:10:43;101277.54;;;21.19;84.16
80699;BME280;70062;51.658;5.658;2023-08-12T07:14:41;101275.73;;;21.26;84.08
80699;BME280;70062;51.658;5.658;2023-08-12T07:17:23;101272.09;;;21.32;83.98
80699;BME280;70062;51.658;5.658;2023-08-12T07:19:49;101273.25;;;21.37;84.06
80699;BME280;70062;51.658;5.658;2023-08-12T07:22:14;101272.48;;;21.48;83.93
80699;BME280;70062;51.658;5.658;2023-08-12T07:24:43;101271.35;;;21.55;83.66
80699;BME280;70062;51.658;5.658;2023-08-12T07:27:09;101269.52;;;21.63;83.30
80699;BME280;70062;51.658;5.658;2023-08-12T07:29:36;101268.51;;;21.66;83.09
80699;BME280;70062;51.658;5.658;2023-08-12T07:32:02;101266.64;;;21.72;83.28
80699;BME280;70062;51.658;5.658;2023-08-12T07:34:27;101268.95;;;21.76;83.01
80699;BME280;70062;51.658;5.658;2023-08-12T07:36:53;101267.22;;;21.77;83.13
80699;BME280;70062;51.658;5.658;2023-08-12T07:39:18;101269.64;;;21.75;82.99
80699;BME280;70062;51.658;5.658;2023-08-12T07:41:44;101271.66;;;21.67;82.86
80699;BME280;70062;51.658;5.658;2023-08-12T07:44:09;101269.13;;;21.59;83.07
80699;BME280;70062;51.658;5.658;2023-08-12T07:46:34;101271.66;;;21.51;83.50
80699;BME280;70062;51.658;5.658;2023-08-12T07:49:00;101272.98;;;21.44;83.60
80699;BME280;70062;51.658;5.658;2023-08-12T07:51:25;101266.98;;;21.39;83.80
80699;BME280;70062;51.658;5.658;2023-08-12T07:53:51;101272.34;;;21.34;83.92
80699;BME280;70062;51.658;5.658;2023-08-12T07:56:16;101272.33;;;21.33;84.00
80699;BME280;70062;51.658;5.658;2023-08-12T07:58:41;101268.30;;;21.32;83.98
80699;BME280;70062;51.658;5.658;2023-08-12T08:01:07;101265.52;;;21.33;84.22
80699;BME280;70062;51.658;5.658;2023-08-12T08:03:56;101258.67;;;21.46;84.06
80699;BME280;70062;51.658;5.658;2023-08-12T08:06:23;101258.05;;;21.53;83.99
80699;BME280;70062;51.658;5.658;2023-08-12T08:08:52;101255.34;;;21.61;84.05
80699;BME280;70062;51.658;5.658;2023-08-12T08:11:18;101254.35;;;21.66;83.97
80699;BME280;70062;51.658;5.658;2023-08-12T08:13:43;101255.27;;;21.71;83.97
80699;BME280;70062;51.658;5.658;2023-08-12T08:16:08;101257.91;;;21.73;83.71
80699;BME280;70062;51.658;5.658;2023-08-12T08:18:34;101263.34;;;21.75;83.85
80699;BME280;70062;51.658;5.658;2023-08-12T08:20:59;101268.08;;;21.75;83.76
80699;BME280;70062;51.658;5.658;2023-08-12T08:23:24;101270.58;;;21.82;83.68
80699;BME280;70062;51.658;5.658;2023-08-12T08:25:50;101271.15;;;21.86;83.43
80699;BME280;70062;51.658;5.658;2023-08-12T08:28:15;101276.20;;;21.86;83.40
80699;BME280;70062;51.658;5.658;2023-08-12T08:30:41;101276.10;;;21.92;83.46
80699;BME280;70062;51.658;5.658;2023-08-12T08:33:06;101280.45;;;22.07;83.14
80699;BME280;70062;51.658;5.658;2023-08-12T08:35:31;101276.52;;;22.18;82.98
80699;BME280;70062;51.658;5.658;2023-08-12T08:37:57;101275.17;;;22.23;82.57
80699;BME280;70062;51.658;5.658;2023-08-12T08:46:41;101272.11;;;22.80;81.14
80699;BME280;70062;51.658;5.658;2023-08-12T08:49:07;101276.91;;;22.90;80.86
80699;BME280;70062;51.658;5.658;2023-08-12T08:51:34;101284.28;;;22.94;79.89
80699;BME280;70062;51.658;5.658;2023-08-12T08:54:02;101288.27;;;22.87;79.86
80699;BME280;70062;51.658;5.658;2023-08-12T08:56:31;101292.75;;;22.78;79.89
80699;BME280;70062;51.658;5.658;2023-08-12T08:59:00;101299.54;;;22.73;79.74
80699;BME280;70062;51.658;5.658;2023-08-12T09:01:27;101298.08;;;22.87;79.02
80699;BME280;70062;51.658;5.658;2023-08-12T09:03:54;101306.41;;;23.07;78.71
80699;BME280;70062;51.658;5.658;2023-08-12T09:06:21;101305.80;;;23.25;77.75
80699;BME280;70062;51.658;5.658;2023-08-12T09:08:48;101306.91;;;23.40;77.50
80699;BME280;70062;51.658;5.658;2023-08-12T09:11:17;101303.95;;;23.44;77.25
80699;BME280;70062;51.658;5.658;2023-08-12T09:13:43;101306.94;;;23.48;77.01
80699;BME280;70062;51.658;5.658;2023-08-12T09:16:08;101313.79;;;23.51;76.34
80699;BME280;70062;51.658;5.658;2023-08-12T09:18:35;101310.53;;;23.64;75.84
80699;BME280;70062;51.658;5.658;2023-08-12T09:21:02;101311.11;;;23.89;75.26
80699;BME280;70062;51.658;5.658;2023-08-12T09:23:28;101316.05;;;24.08;75.23
80699;BME280;70062;51.658;5.658;2023-08-12T09:25:53;101318.52;;;24.25;74.25
80699;BME280;70062;51.658;5.658;2023-08-12T09:28:19;101319.96;;;24.29;73.44
80699;BME280;70062;51.658;5.658;2023-08-12T09:30:51;101321.55;;;24.36;72.23
80699;BME280;70062;51.658;5.658;2023-08-12T09:33:26;101329.11;;;24.36;72.26
80699;BME280;70062;51.658;5.658;2023-08-12T09:35:52;101330.98;;;24.24;72.73
80699;BME280;70062;51.658;5.658;2023-08-12T09:38:18;101332.19;;;24.16;72.92
80699;BME280;70062;51.658;5.658;2023-08-12T09:40:46;101343.06;;;24.21;71.62
80699;BME280;70062;51.658;5.658;2023-08-12T09:43:11;101350.07;;;24.09;71.63
80699;BME280;70062;51.658;5.658;2023-08-12T09:45:40;101352.51;;;23.95;71.43
80699;BME280;70062;51.658;5.658;2023-08-12T09:48:06;101350.60;;;24.09;71.62
80699;BME280;70062;51.658;5.658;2023-08-12T09:50:33;101344.28;;;24.17;70.59
80699;BME280;70062;51.658;5.658;2023-08-12T09:52:59;101336.27;;;24.28;70.28
80699;BME280;70062;51.658;5.658;2023-08-12T09:55:29;101333.31;;;24.48;69.67
80699;BME280;70062;51.658;5.658;2023-08-12T09:57:58;101335.39;;;24.77;69.30
80699;BME280;70062;51.658;5.658;2023-08-12T10:00:25;101333.95;;;25.03;67.83
80699;BME280;70062;51.658;5.658;2023-08-12T10:02:52;101333.88;;;25.27;66.56
80699;BME280;70062;51.658;5.658;2023-08-12T10:05:27;101334.18;;;25.38;65.51
80699;BME280;70062;51.658;5.658;2023-08-12T10:07:54;101332.73;;;25.49;65.23
80699;BME280;70062;51.658;5.658;2023-08-12T10:10:22;101339.89;;;25.66;64.40
80699;BME280;70062;51.658;5.658;2023-08-12T10:12:48;101345.69;;;25.63;64.45
80699;BME280;70062;51.658;5.658;2023-08-12T10:21:34;101350.77;;;26.04;62.57
80699;BME280;70062;51.658;5.658;2023-08-12T10:24:00;101356.36;;;26.11;62.45
80699;BME280;70062;51.658;5.658;2023-08-12T10:26:26;101352.78;;;26.19;62.08
80699;BME280;70062;51.658;5.658;2023-08-12T10:28:51;101361.96;;;26.42;61.53
80699;BME280;70062;51.658;5.658;2023-08-12T10:31:18;101364.71;;;26.50;60.41
80699;BME280;70062;51.658;5.658;2023-08-12T10:33:44;101364.66;;;26.33;59.98
80699;BME280;70062;51.658;5.658;2023-08-12T10:36:10;101362.38;;;26.30;60.09
80699;BME280;70062;51.658;5.658;2023-08-12T10:38:35;101361.13;;;26.36;59.48
80699;BME280;70062;51.658;5.658;2023-08-12T10:41:22;101361.45;;;26.40;59.32
80699;BME280;70062;51.658;5.658;2023-08-12T10:43:55;101354.38;;;26.44;58.70
80699;BME280;70062;51.658;5.658;2023-08-12T10:46:22;101357.98;;;26.34;58.34
80699;BME280;70062;51.658;5.658;2023-08-12T10:49:08;101357.73;;;26.44;58.54
80699;BME280;70062;51.658;5.658;2023-08-12T11:11:22;101359.66;;;27.65;53.42
80699;BME280;70062;51.658;5.658;2023-08-12T11:13:56;101363.04;;;27.77;52.29
80699;BME280;70062;51.658;5.658;2023-08-12T11:16:39;101361.66;;;27.74;51.76
80699;BME280;70062;51.658;5.658;2023-08-12T11:19:07;101360.98;;;27.86;50.79
80699;BME280;70062;51.658;5.658;2023-08-12T11:21:36;101359.71;;;28.00;50.51
80699;BME280;70062;51.658;5.658;2023-08-12T11:24:02;101360.70;;;28.16;49.30
80699;BME280;70062;51.658;5.658;2023-08-12T11:26:28;101365.75;;;28.10;48.77
80699;BME280;70062;51.658;5.658;2023-08-12T11:28:53;101360.70;;;27.92;48.59
80699;BME280;70062;51.658;5.658;2023-08-12T11:31:19;101365.02;;;28.00;48.80
80699;BME280;70062;51.658;5.658;2023-08-12T11:33:44;101359.95;;;27.84;47.85
80699;BME280;70062;51.658;5.658;2023-08-12T11:36:10;101362.91;;;27.56;48.24
80699;BME280;70062;51.658;5.658;2023-08-12T11:38:40;101358.23;;;27.49;48.58
80699;BME280;70062;51.658;5.658;2023-08-12T11:41:05;101363.27;;;27.55;48.74
80699;BME280;70062;51.658;5.658;2023-08-12T11:43:33;101358.91;;;27.51;48.53
80699;BME280;70062;51.658;5.658;2023-08-12T11:45:59;101356.15;;;27.78;46.67
80699;BME280;70062;51.658;5.658;2023-08-12T11:48:26;101360.48;;;28.08;45.87
80699;BME280;70062;51.658;5.658;2023-08-12T11:50:53;101362.07;;;28.32;44.11
80699;BME280;70062;51.658;5.658;2023-08-12T11:53:19;101367.14;;;28.35;43.72
80699;BME280;70062;51.658;5.658;2023-08-12T11:55:45;101374.85;;;28.28;43.23
80699;BME280;70062;51.658;5.658;2023-08-12T11:58:11;101368.71;;;27.88;43.19
80699;BME280;70062;51.658;5.658;2023-08-12T12:00:37;101367.76;;;27.66;44.96
80699;BME280;70062;51.658;5.658;2023-08-12T12:03:02;101366.80;;;27.70;45.28
80699;BME280;70062;51.658;5.658;2023-08-12T12:05:29;101374.50;;;27.78;45.34
80699;BME280;70062;51.658;5.658;2023-08-12T12:08:00;101383.50;;;28.03;43.77
80699;BME280;70062;51.658;5.658;2023-08-12T12:10:30;101385.84;;;28.47;42.89
80699;BME280;70062;51.658;5.658;2023-08-12T12:12:58;101385.52;;;28.97;42.80
80699;BME280;70062;51.658;5.658;2023-08-12T12:15:24;101381.92;;;29.57;41.48
80699;BME280;70062;51.658;5.658;2023-08-12T12:17:50;101377.38;;;30.03;40.08
80699;BME280;70062;51.658;5.658;2023-08-12T12:20:16;101377.02;;;30.33;39.71
80699;BME280;70062;51.658;5.658;2023-08-12T12:22:43;101377.02;;;30.76;38.40
80699;BME280;70062;51.658;5.658;2023-08-12T12:25:10;101379.39;;;31.08;39.48
80699;BME280;70062;51.658;5.658;2023-08-12T12:27:37;101384.68;;;31.35;38.74
80699;BME280;70062;51.658;5.658;2023-08-12T12:30:03;101391.66;;;31.39;37.24
80699;BME280;70062;51.658;5.658;2023-08-12T12:32:29;101389.52;;;31.21;37.77
80699;BME280;70062;51.658;5.658;2023-08-12T12:34:56;101386.10;;;31.08;37.82
80699;BME280;70062;51.658;5.658;2023-08-12T12:37:23;101388.39;;;30.95;38.86
80699;BME280;70062;51.658;5.658;2023-08-12T12:39:48;101390.95;;;30.92;39.34
80699;BME280;70062;51.658;5.658;2023-08-12T12:42:13;101385.30;;;31.05;38.92
80699;BME280;70062;51.658;5.658;2023-08-12T12:44:39;101385.76;;;31.29;38.90
80699;BME280;70062;51.658;5.658;2023-08-12T12:47:04;101385.07;;;31.46;38.63
80699;BME280;70062;51.658;5.658;2023-08-12T12:49:30;101387.13;;;31.85;38.01
80699;BME280;70062;51.658;5.658;2023-08-12T12:51:56;101386.95;;;32.30;37.70
80699;BME280;70062;51.658;5.658;2023-08-12T12:54:21;101385.05;;;32.77;36.34
80699;BME280;70062;51.658;5.658;2023-08-12T12:56:47;101383.81;;;32.93;34.96
80699;BME280;70062;51.658;5.658;2023-08-12T12:59:12;101382.48;;;33.15;36.11
80699;BME280;70062;51.658;5.658;2023-08-12T13:01:39;101385.33;;;33.35;34.95
80699;BME280;70062;51.658;5.658;2023-08-12T13:04:05;101383.98;;;33.28;34.80
80699;BME280;70062;51.658;5.658;2023-08-12T13:06:30;101384.44;;;33.20;34.18
80699;BME280;70062;51.658;5.658;2023-08-12T13:09:02;101382.84;;;33.20;34.58
80699;BME280;70062;51.658;5.658;2023-08-12T13:11:28;101388.42;;;33.43;33.71
80699;BME280;70062;51.658;5.658;2023-08-12T13:13:54;101389.09;;;33.72;33.28
80699;BME280;70062;51.658;5.658;2023-08-12T13:16:20;101390.34;;;34.61;32.62
80699;BME280;70062;51.658;5.658;2023-08-12T13:18:45;101395.60;;;35.97;30.77
80699;BME280;70062;51.658;5.658;2023-08-12T13:21:11;101392.52;;;37.62;28.30